createdAt,value
2018-03-02T00:00:51.830Z,100902.22
2018-03-02T00:03:17.794Z,100899.95
2018-03-02T00:05:43.723Z,100894.87
2018-03-02T00:08:09.682Z,100891.63
2018-03-02T00:10:35.545Z,100895.73
2018-03-02T00:13:01.448Z,100886.23
2018-03-02T00:15:27.401Z,100887.41
2018-03-02T00:17:53.337Z,100885.64
2018-03-02T00:20:19.327Z,100880.73
2018-03-02T00:22:45.454Z,100882.75
2018-03-02T00:25:11.344Z,100871.53
2018-03-02T00:27:37.916Z,100880.37
2018-03-02T00:30:03.836Z,100870.80
2018-03-02T00:32:29.689Z,100866.93
2018-03-02T00:34:55.590Z,100876.22
2018-03-02T00:37:21.474Z,100867.77
2018-03-02T00:39:47.430Z,100860.42
2018-03-02T00:42:13.461Z,100863.66
2018-03-02T00:44:39.403Z,100857.02
2018-03-02T00:47:05.278Z,100854.88
2018-03-02T00:49:31.509Z,100851.50
2018-03-02T00:51:57.456Z,100848.95
2018-03-02T00:54:23.397Z,100839.13
2018-03-02T00:56:49.305Z,100842.00
2018-03-02T00:59:15.201Z,100841.91
2018-03-02T01:01:41.066Z,100838.17
2018-03-02T01:04:07.126Z,100827.87
2018-03-02T01:06:33.050Z,100836.38
2018-03-02T01:08:58.922Z,100827.56
2018-03-02T01:11:24.990Z,100818.30
2018-03-02T01:13:50.852Z,100827.31
2018-03-02T01:16:16.818Z,100821.06
2018-03-02T01:18:42.806Z,100815.94
2018-03-02T01:21:08.690Z,100810.39
2018-03-02T01:23:34.558Z,100811.13
2018-03-02T01:26:00.531Z,100804.30
2018-03-02T01:28:26.497Z,100791.51
2018-03-02T01:30:52.438Z,100792.11
2018-03-02T01:33:18.384Z,100784.20
2018-03-02T01:35:44.290Z,100780.55
2018-03-02T01:38:10.163Z,100781.19
2018-03-02T01:40:36.348Z,100777.70
2018-03-02T01:43:02.304Z,100779.03
2018-03-02T01:45:28.191Z,100774.95
2018-03-02T01:47:54.102Z,100775.08
2018-03-02T01:50:19.986Z,100762.94
2018-03-02T01:52:45.946Z,100761.06
2018-03-02T01:55:11.901Z,100759.16
2018-03-02T01:57:37.772Z,100755.42
2018-03-02T02:00:03.674Z,100751.56
2018-03-02T02:02:31.422Z,100751.25
2018-03-02T02:04:57.412Z,100746.19
2018-03-02T02:07:23.345Z,100728.02
2018-03-02T02:09:49.242Z,100729.77
2018-03-02T02:12:15.113Z,100720.80
2018-03-02T02:14:40.989Z,100711.11
2018-03-02T02:17:07.286Z,100712.80
2018-03-02T02:19:33.207Z,100710.97
2018-03-02T02:21:59.086Z,100715.48
2018-03-02T02:24:25.015Z,100702.48
2018-03-02T02:26:50.884Z,100704.29
2018-03-02T02:29:17.720Z,100693.63
2018-03-02T02:31:43.670Z,100683.50
2018-03-02T02:34:09.534Z,100680.56
2018-03-02T02:36:35.388Z,100689.52
2018-03-02T02:39:01.314Z,100682.13
2018-03-02T02:41:27.281Z,100684.94
2018-03-02T02:43:53.209Z,100681.19
2018-03-02T02:46:19.123Z,100693.71
2018-03-02T02:48:44.973Z,100696.40
2018-03-02T02:51:10.850Z,100696.73
2018-03-02T02:53:36.841Z,100695.93
2018-03-02T02:56:02.765Z,100695.74
2018-03-02T02:58:28.646Z,100695.13
2018-03-02T03:00:54.954Z,100698.86
2018-03-02T03:03:20.830Z,100695.02
2018-03-02T03:05:47.080Z,100693.20
2018-03-02T03:08:13.058Z,100690.41
2018-03-02T03:10:38.938Z,100697.14
2018-03-02T03:13:04.802Z,100701.17
2018-03-02T03:15:30.790Z,100689.14
2018-03-02T03:17:56.756Z,100682.90
2018-03-02T03:20:22.667Z,100684.42
2018-03-02T03:22:48.580Z,100683.63
2018-03-02T03:25:14.453Z,100684.03
2018-03-02T03:27:40.313Z,100677.84
2018-03-02T03:30:06.673Z,100675.67
2018-03-02T03:32:32.577Z,100673.07
2018-03-02T03:34:58.453Z,100671.28
2018-03-02T03:37:24.434Z,100669.03
2018-03-02T03:39:50.294Z,100662.12
2018-03-02T03:42:16.262Z,100662.48
2018-03-02T03:44:42.229Z,100657.32
2018-03-02T03:47:08.157Z,100660.75
2018-03-02T03:49:34.038Z,100648.06
2018-03-02T03:51:59.935Z,100648.42
2018-03-02T03:54:25.881Z,100650.02
2018-03-02T03:56:51.808Z,100651.03
2018-03-02T03:59:17.742Z,100648.72
2018-03-02T04:01:43.613Z,100651.65
2018-03-02T04:04:09.498Z,100640.10
2018-03-02T04:06:35.666Z,100632.26
2018-03-02T04:09:01.586Z,100638.92
2018-03-02T04:11:27.461Z,100635.57
2018-03-02T04:13:53.362Z,100642.48
2018-03-02T04:16:19.222Z,100639.41
2018-03-02T04:18:45.171Z,100637.36
2018-03-02T04:21:11.212Z,100641.11
2018-03-02T04:23:37.062Z,100631.84
2018-03-02T04:26:02.922Z,100637.14
2018-03-02T04:28:28.836Z,100628.20
2018-03-02T04:30:55.361Z,100623.97
2018-03-02T04:33:21.277Z,100614.48
2018-03-02T04:35:47.193Z,100626.00
2018-03-02T04:38:13.053Z,100609.80
2018-03-02T04:40:38.913Z,100613.95
2018-03-02T04:43:05.264Z,100606.77
2018-03-02T04:45:31.208Z,100601.38
2018-03-02T04:47:57.477Z,100605.17
2018-03-02T04:50:23.538Z,100608.64
2018-03-02T04:52:49.426Z,100605.02
2018-03-02T04:55:15.376Z,100588.58
2018-03-02T04:57:41.365Z,100592.52
2018-03-02T05:00:07.232Z,100585.97
2018-03-02T05:02:33.104Z,100592.70
2018-03-02T05:04:59.011Z,100583.06
2018-03-02T05:07:24.958Z,100582.80
2018-03-02T05:09:50.884Z,100593.25
2018-03-02T05:12:16.809Z,100593.37
2018-03-02T05:14:42.663Z,100588.80
2018-03-02T05:17:08.625Z,100591.66
2018-03-02T05:19:34.796Z,100586.76
2018-03-02T05:22:00.710Z,100584.89
2018-03-02T05:24:26.593Z,100584.84
2018-03-02T05:26:52.510Z,100576.16
2018-03-02T05:29:18.373Z,100578.87
2018-03-02T05:31:44.341Z,100581.48
2018-03-02T05:34:10.318Z,100580.88
2018-03-02T05:36:36.184Z,100573.60
2018-03-02T05:39:02.068Z,100575.92
2018-03-02T05:41:28.034Z,100568.63
2018-03-02T05:43:54.006Z,100577.39
2018-03-02T05:46:19.918Z,100566.02
2018-03-02T05:48:45.847Z,100562.00
2018-03-02T05:51:11.709Z,100569.45
2018-03-02T05:53:37.561Z,100553.46
2018-03-02T05:56:03.586Z,100562.91
2018-03-02T05:58:29.502Z,100564.56
2018-03-02T06:00:55.370Z,100560.81
2018-03-02T06:03:21.271Z,100569.67
2018-03-02T06:05:47.120Z,100567.19
2018-03-02T06:08:13.074Z,100560.44
2018-03-02T06:10:39.038Z,100565.82
2018-03-02T06:13:04.911Z,100569.06
2018-03-02T06:15:30.785Z,100567.45
2018-03-02T06:17:56.829Z,100564.97
2018-03-02T06:20:22.760Z,100565.76
2018-03-02T06:22:48.687Z,100566.81
2018-03-02T06:25:14.589Z,100567.77
2018-03-02T06:27:40.546Z,100569.54
2018-03-02T06:30:06.410Z,100563.07
2018-03-02T06:32:32.739Z,100567.22
2018-03-02T06:34:58.663Z,100560.14
2018-03-02T06:37:24.550Z,100554.09
2018-03-02T06:39:50.452Z,100554.99
2018-03-02T06:42:16.330Z,100550.41
2018-03-02T06:44:42.290Z,100545.14
2018-03-02T06:47:08.254Z,100539.33
2018-03-02T06:49:34.173Z,100543.98
2018-03-02T06:52:00.036Z,100543.33
2018-03-02T06:54:25.953Z,100541.52
2018-03-02T06:56:51.914Z,100531.34
2018-03-02T06:59:17.881Z,100526.17
2018-03-02T07:01:43.793Z,100525.10
2018-03-02T07:04:09.656Z,100523.23
2018-03-02T07:06:35.554Z,100526.42
2018-03-02T07:09:01.529Z,100524.45
2018-03-02T07:11:27.446Z,100525.02
2018-03-02T07:13:53.321Z,100523.69
2018-03-02T07:16:19.217Z,100530.62
2018-03-02T07:18:45.085Z,100514.22
2018-03-02T07:21:11.075Z,100514.80
2018-03-02T07:23:37.035Z,100503.31
2018-03-02T07:26:02.966Z,100506.88
2018-03-02T07:28:28.887Z,100500.78
2018-03-02T07:30:54.798Z,100500.44
2018-03-02T07:33:20.810Z,100490.29
2018-03-02T07:35:46.804Z,100499.69
2018-03-02T07:38:12.768Z,100493.98
2018-03-02T07:40:38.628Z,100485.08
2018-03-02T07:43:04.590Z,100485.20
2018-03-02T07:45:30.602Z,100481.47
2018-03-02T07:47:56.530Z,100479.59
2018-03-02T07:50:22.411Z,100476.65
2018-03-02T07:52:48.629Z,100481.52
2018-03-02T07:55:14.551Z,100470.59
2018-03-02T07:57:40.492Z,100482.33
2018-03-02T08:00:06.534Z,100482.09
2018-03-02T08:02:32.414Z,100473.44
2018-03-02T08:04:58.278Z,100468.78
2018-03-02T08:07:24.346Z,100466.08
2018-03-02T08:09:50.316Z,100465.48
2018-03-02T08:12:16.245Z,100470.48
2018-03-02T08:14:42.150Z,100460.54
2018-03-02T08:17:08.012Z,100464.28
2018-03-02T08:19:33.874Z,100458.69
2018-03-02T08:21:59.861Z,100452.70
2018-03-02T08:24:25.781Z,100449.67
2018-03-02T08:26:51.663Z,100439.18
2018-03-02T08:29:17.573Z,100445.05
2018-03-02T08:31:43.443Z,100440.93
2018-03-02T08:34:09.878Z,100432.36
2018-03-02T08:36:35.945Z,100439.02
2018-03-02T08:39:01.895Z,100433.63
2018-03-02T08:41:27.764Z,100424.23
2018-03-02T08:43:53.692Z,100420.59
2018-03-02T08:46:19.647Z,100423.66
2018-03-02T08:48:45.853Z,100421.17
2018-03-02T08:51:12.653Z,100410.60
2018-03-02T08:53:38.536Z,100405.86
2018-03-02T08:56:04.401Z,100394.58
2018-03-02T08:58:30.394Z,100391.45
2018-03-02T09:00:56.364Z,100382.07
2018-03-02T09:03:22.326Z,100385.47
2018-03-02T09:05:48.258Z,100389.16
2018-03-02T09:08:14.133Z,100377.84
2018-03-02T09:10:40.083Z,100383.67
2018-03-02T09:13:06.041Z,100378.55
2018-03-02T09:15:31.925Z,100361.45
2018-03-02T09:17:57.790Z,100355.05
2018-03-02T09:20:23.706Z,100359.08
2018-03-02T09:22:49.670Z,100353.41
2018-03-02T09:25:15.600Z,100343.73
2018-03-02T09:27:41.579Z,100346.77
2018-03-02T09:30:07.529Z,100341.39
2018-03-02T09:32:33.352Z,100337.45
2018-03-02T09:34:59.369Z,100337.37
2018-03-02T09:37:25.273Z,100334.27
2018-03-02T09:39:51.125Z,100342.13
2018-03-02T09:42:17.465Z,100328.63
2018-03-02T09:44:43.337Z,100320.93
2018-03-02T09:47:09.302Z,100323.88
2018-03-02T09:49:35.287Z,100317.97
2018-03-02T09:52:01.166Z,100306.16
2018-03-02T09:54:27.039Z,100295.77
2018-03-02T09:56:52.958Z,100302.84
2018-03-02T09:59:18.939Z,100293.09
2018-03-02T10:01:44.857Z,100289.11
2018-03-02T10:04:11.282Z,100301.89
2018-03-02T10:06:37.145Z,100290.28
2018-03-02T10:09:03.041Z,100271.94
2018-03-02T10:11:29.028Z,100279.11
2018-03-02T10:13:54.951Z,100270.78
2018-03-02T10:16:20.818Z,100270.36
2018-03-02T10:18:46.738Z,100269.12
2018-03-02T10:21:12.680Z,100242.62
2018-03-02T10:23:38.613Z,100260.84
2018-03-02T10:26:04.567Z,100254.22
2018-03-02T10:28:30.424Z,100259.95
2018-03-02T10:30:56.334Z,100244.20
2018-03-02T10:33:22.315Z,100247.09
2018-03-02T10:35:48.266Z,100245.24
2018-03-02T10:38:14.178Z,100235.82
2018-03-02T10:40:40.076Z,100232.63
2018-03-02T10:43:05.932Z,100234.73
2018-03-02T10:45:31.801Z,100219.60
2018-03-02T10:47:57.796Z,100233.83
2018-03-02T10:50:24.755Z,100221.25
2018-03-02T10:52:50.630Z,100220.05
2018-03-02T10:55:16.590Z,100215.47
2018-03-02T10:57:42.448Z,100206.70
2018-03-02T11:00:08.450Z,100198.80
2018-03-02T11:02:34.426Z,100197.08
2018-03-02T11:05:07.663Z,100188.73
2018-03-02T11:07:33.634Z,100203.19
2018-03-02T11:09:59.702Z,100196.41
2018-03-02T11:12:25.705Z,100194.78
2018-03-02T11:14:51.789Z,100197.85
2018-03-02T11:17:17.747Z,100194.61
2018-03-02T11:19:44.906Z,100166.33
2018-03-02T11:22:10.810Z,100193.13
2018-03-02T11:24:36.780Z,100187.11
2018-03-02T11:27:02.770Z,100185.77
2018-03-02T11:29:28.700Z,100174.64
2018-03-02T11:31:54.570Z,100186.73
2018-03-02T11:34:20.471Z,100178.13
2018-03-02T11:36:46.487Z,100164.95
2018-03-02T11:39:12.470Z,100173.81
2018-03-02T11:41:38.354Z,100162.44
2018-03-02T11:44:04.372Z,100159.53
2018-03-02T11:46:30.245Z,100161.30
2018-03-02T11:48:56.218Z,100149.63
2018-03-02T11:51:22.557Z,100157.16
2018-03-02T11:53:48.455Z,100149.97
2018-03-02T11:56:14.326Z,100143.62
2018-03-02T11:58:40.394Z,100138.56
2018-03-02T12:01:06.374Z,100133.95
2018-03-02T12:03:32.290Z,100132.63
2018-03-02T12:05:58.200Z,100139.08
2018-03-02T12:08:24.050Z,100132.52
2018-03-02T12:10:49.916Z,100134.52
2018-03-02T12:13:15.996Z,100130.47
2018-03-02T12:15:42.029Z,100136.25
2018-03-02T12:18:07.896Z,100129.01
2018-03-02T12:20:33.791Z,100132.03
2018-03-02T12:22:59.670Z,100134.60
2018-03-02T12:25:25.649Z,100137.61
2018-03-02T12:27:51.618Z,100137.44
2018-03-02T12:30:17.536Z,100122.20
2018-03-02T12:32:43.413Z,100129.73
2018-03-02T12:35:09.317Z,100120.96
2018-03-02T12:37:35.252Z,100118.53
2018-03-02T12:40:01.601Z,100122.30
2018-03-02T12:42:27.586Z,100120.91
2018-03-02T12:44:53.456Z,100101.56
2018-03-02T12:47:19.341Z,100103.08
2018-03-02T12:49:45.599Z,100104.09
2018-03-02T12:52:11.515Z,100107.45
2018-03-02T12:54:37.393Z,100099.09
2018-03-02T12:57:03.777Z,100096.62
2018-03-02T12:59:29.632Z,100097.34
2018-03-02T13:01:55.602Z,100095.62
2018-03-02T13:04:21.607Z,100100.39
2018-03-02T13:06:47.470Z,100084.96
2018-03-02T13:09:13.334Z,100089.05
2018-03-02T13:11:39.274Z,100087.28
2018-03-02T13:14:05.226Z,100083.92
2018-03-02T13:16:31.140Z,100079.55
2018-03-02T13:18:57.066Z,100078.61
2018-03-02T13:21:22.929Z,100074.77
2018-03-02T13:23:48.794Z,100072.11
2018-03-02T13:26:28.689Z,100071.34
2018-03-02T13:28:54.674Z,100069.41
2018-03-02T13:31:20.540Z,100062.50
2018-03-02T13:33:58.810Z,100083.70
2018-03-02T13:36:24.766Z,100072.58
2018-03-02T13:38:50.626Z,100075.22
2018-03-02T13:41:28.840Z,100060.44
2018-03-02T13:43:54.733Z,100065.52
2018-03-02T13:46:20.602Z,100066.98
2018-03-02T13:48:58.912Z,100066.39
2018-03-02T13:51:24.783Z,100059.56
2018-03-02T13:53:50.711Z,100065.00
2018-03-02T13:56:28.968Z,100062.79
2018-03-02T13:58:54.923Z,100063.17
2018-03-02T14:01:20.818Z,100061.36
2018-03-02T14:03:59.227Z,100063.78
2018-03-02T14:06:25.144Z,100049.46
2018-03-02T14:08:50.999Z,100058.48
2018-03-02T14:11:17.074Z,100051.36
2018-03-02T14:13:42.979Z,100055.00
2018-03-02T14:16:08.893Z,100047.24
2018-03-02T14:18:34.809Z,100043.44
2018-03-02T14:21:00.670Z,100040.49
2018-03-02T14:23:26.638Z,100038.79
2018-03-02T14:25:52.570Z,100038.81
2018-03-02T14:28:19.334Z,100038.91
2018-03-02T14:30:45.207Z,100035.92
2018-03-02T14:33:11.157Z,100037.64
2018-03-02T14:35:37.154Z,100031.82
2018-03-02T14:38:03.071Z,100034.58
2018-03-02T14:40:29.130Z,100026.86
2018-03-02T14:42:55.016Z,100032.23
2018-03-02T14:45:20.890Z,100015.11
2018-03-02T14:47:46.888Z,100030.41
2018-03-02T14:50:12.912Z,100027.16
2018-03-02T14:52:38.811Z,100024.62
2018-03-02T14:55:04.762Z,100022.14
2018-03-02T14:57:30.663Z,100017.68
2018-03-02T14:59:56.600Z,100026.44
2018-03-02T15:02:22.578Z,100014.67
2018-03-02T15:04:49.129Z,100022.05
2018-03-02T15:07:15.222Z,100027.40
2018-03-02T15:09:41.134Z,100027.16
2018-03-02T15:12:07.081Z,100027.00
2018-03-02T15:14:33.317Z,100030.93
2018-03-02T15:16:59.377Z,100041.39
2018-03-02T15:19:25.257Z,100037.86
2018-03-02T15:21:51.122Z,100038.23
2018-03-02T15:24:17.869Z,100029.09
2018-03-02T15:26:43.814Z,100044.35
2018-03-02T15:29:09.742Z,100042.59
2018-03-02T15:31:35.678Z,100034.16
2018-03-02T15:34:01.595Z,100029.38
2018-03-02T15:36:27.530Z,100039.44
2018-03-02T15:38:53.467Z,100036.95
2018-03-02T15:41:19.440Z,100037.05
2018-03-02T15:43:45.374Z,100039.73
2018-03-02T15:46:11.292Z,100049.27
2018-03-02T15:48:37.225Z,100039.12
2018-03-02T15:51:03.096Z,100043.84
2018-03-02T15:53:29.304Z,100052.52
2018-03-02T15:55:55.187Z,100044.56
2018-03-02T15:58:21.060Z,100051.09
2018-03-02T16:00:47.078Z,100051.65
2018-03-02T16:03:12.964Z,100052.30
2018-03-02T16:05:38.877Z,100056.48
2018-03-02T16:08:04.986Z,100053.07
2018-03-02T16:10:30.922Z,100060.30
2018-03-02T16:12:56.892Z,100065.22
2018-03-02T16:15:22.826Z,100073.91
2018-03-02T16:17:48.755Z,100070.94
2018-03-02T16:20:14.711Z,100067.77
2018-03-02T16:22:40.616Z,100074.98
2018-03-02T16:25:06.591Z,100078.93
2018-03-02T16:27:32.484Z,100082.48
2018-03-02T16:29:58.443Z,100082.47
2018-03-02T16:32:24.319Z,100081.34
2018-03-02T16:34:50.239Z,100069.38
2018-03-02T16:37:16.247Z,100080.09
2018-03-02T16:39:42.141Z,100089.05
2018-03-02T16:42:08.059Z,100088.17
2018-03-02T16:44:34.426Z,100080.64
2018-03-02T16:47:00.287Z,100085.77
2018-03-02T16:49:26.344Z,100085.34
2018-03-02T16:51:52.386Z,100092.33
2018-03-02T16:54:18.327Z,100102.41
2018-03-02T16:56:46.459Z,100106.81
2018-03-02T16:59:12.575Z,100107.20
2018-03-02T17:01:38.696Z,100104.52
2018-03-02T17:04:04.586Z,100112.95
2018-03-02T17:06:30.760Z,100114.58
2018-03-02T17:08:56.657Z,100120.30
2018-03-02T17:11:22.522Z,100116.79
2018-03-02T17:13:48.533Z,100132.91
2018-03-02T17:16:14.461Z,100133.88
2018-03-02T17:18:40.406Z,100125.64
2018-03-02T17:21:06.387Z,100135.24
2018-03-02T17:23:32.362Z,100131.98
2018-03-02T17:25:58.350Z,100139.59
2018-03-02T17:28:24.297Z,100139.59
2018-03-02T17:30:50.210Z,100151.22
2018-03-02T17:33:16.300Z,100144.68
2018-03-02T17:35:44.146Z,100141.03
2018-03-02T17:38:10.102Z,100153.40
2018-03-02T17:40:36.445Z,100150.42
2018-03-02T17:43:02.625Z,100158.69
2018-03-02T17:45:28.515Z,100160.73
2018-03-02T17:47:54.385Z,100156.41
2018-03-02T17:50:20.290Z,100171.73
2018-03-02T17:52:46.186Z,100162.50
2018-03-02T17:55:12.107Z,100159.07
2018-03-02T17:57:38.033Z,100161.80
2018-03-02T18:00:03.993Z,100165.12
2018-03-02T18:02:29.878Z,100167.27
2018-03-02T18:04:55.781Z,100171.52
2018-03-02T18:07:21.834Z,100169.09
2018-03-02T18:09:47.711Z,100172.42
2018-03-02T18:12:14.226Z,100175.73
2018-03-02T18:14:40.148Z,100179.39
2018-03-02T18:17:06.043Z,100187.86
2018-03-02T18:19:32.173Z,100184.92
2018-03-02T18:21:58.056Z,100185.98
2018-03-02T18:24:23.974Z,100185.75
2018-03-02T18:26:49.915Z,100181.97
2018-03-02T18:29:15.842Z,100193.61
2018-03-02T18:31:41.747Z,100190.03
2018-03-02T18:34:07.681Z,100197.66
2018-03-02T18:36:33.575Z,100195.84
2018-03-02T18:38:59.935Z,100200.06
2018-03-02T18:41:25.850Z,100201.95
2018-03-02T18:43:51.730Z,100203.14
2018-03-02T18:46:17.673Z,100205.85
2018-03-02T18:48:43.571Z,100205.85
2018-03-02T18:51:09.420Z,100216.30
2018-03-02T18:53:35.291Z,100208.78
2018-03-02T18:56:01.215Z,100220.21
2018-03-02T18:58:27.074Z,100214.13
2018-03-02T19:00:52.946Z,100212.70
2018-03-02T19:03:18.944Z,100222.38
2018-03-02T19:05:44.803Z,100225.00
2018-03-02T19:08:10.682Z,100224.29
2018-03-02T19:10:36.594Z,100231.91
2018-03-02T19:13:02.455Z,100241.86
2018-03-02T19:15:28.393Z,100251.28
2018-03-02T19:17:54.334Z,100243.55
2018-03-02T19:20:20.242Z,100235.88
2018-03-02T19:22:46.157Z,100239.80
2018-03-02T19:25:12.067Z,100246.94
2018-03-02T19:27:37.944Z,100243.30
2018-03-02T19:30:03.810Z,100253.27
2018-03-02T19:32:29.705Z,100248.03
2018-03-02T19:34:55.558Z,100254.30
2018-03-02T19:37:21.410Z,100248.09
2018-03-02T19:39:47.654Z,100241.70
2018-03-02T19:42:13.542Z,100249.30
2018-03-02T19:44:39.400Z,100256.72
2018-03-02T19:47:05.466Z,100251.62
2018-03-02T19:49:31.313Z,100262.83
2018-03-02T19:51:58.601Z,100260.84
2018-03-02T19:54:24.555Z,100266.38
2018-03-02T19:56:50.439Z,100267.42
2018-03-02T19:59:16.306Z,100271.36
2018-03-02T20:01:42.855Z,100264.61
2018-03-02T20:04:08.810Z,100270.33
2018-03-02T20:06:34.702Z,100272.72
2018-03-02T20:09:00.618Z,100275.81
2018-03-02T20:11:26.483Z,100269.39
2018-03-02T20:13:52.386Z,100267.81
2018-03-02T20:16:18.678Z,100268.55
2018-03-02T20:18:44.534Z,100273.55
2018-03-02T20:21:10.486Z,100279.44
2018-03-02T20:23:36.485Z,100270.16
2018-03-02T20:26:02.370Z,100269.52
2018-03-02T20:28:28.509Z,100273.83
2018-03-02T20:30:54.411Z,100282.94
2018-03-02T20:33:20.599Z,100273.29
2018-03-02T20:35:46.502Z,100269.49
2018-03-02T20:38:12.421Z,100277.16
2018-03-02T20:40:38.286Z,100270.27
2018-03-02T20:43:04.168Z,100268.25
2018-03-02T20:45:30.179Z,100273.72
2018-03-02T20:47:56.369Z,100276.78
2018-03-02T20:50:22.266Z,100272.58
2018-03-02T20:52:48.176Z,100281.82
2018-03-02T20:55:14.047Z,100271.77
2018-03-02T20:57:40.092Z,100270.72
2018-03-02T21:00:06.018Z,100274.02
2018-03-02T21:02:31.971Z,100271.33
2018-03-02T21:04:59.121Z,100281.89
2018-03-02T21:07:25.044Z,100282.83
2018-03-02T21:09:51.511Z,100278.75
2018-03-02T21:12:17.395Z,100278.91
2018-03-02T21:14:43.511Z,100273.18
2018-03-02T21:17:09.500Z,100283.64
2018-03-02T21:19:35.372Z,100290.75
2018-03-02T21:22:01.391Z,100293.09
2018-03-02T21:24:27.250Z,100283.75
2018-03-02T21:26:53.187Z,100282.48
2018-03-02T21:29:19.127Z,100276.40
2018-03-02T21:31:45.007Z,100289.59
2018-03-02T21:34:10.958Z,100275.41
2018-03-02T21:36:36.888Z,100283.55
2018-03-02T21:39:02.774Z,100278.44
2018-03-02T21:41:28.651Z,100281.25
2018-03-02T21:43:54.833Z,100283.18
2018-03-02T21:46:20.796Z,100286.38
2018-03-02T21:48:46.699Z,100284.34
2018-03-02T21:51:14.410Z,100286.93
2018-03-02T21:53:40.339Z,100273.84
2018-03-02T21:56:06.289Z,100272.42
2018-03-02T21:58:32.304Z,100273.34
2018-03-02T22:00:58.170Z,100274.58
2018-03-02T22:03:24.050Z,100260.95
2018-03-02T22:05:49.984Z,100265.02
2018-03-02T22:08:15.990Z,100268.92
2018-03-02T22:10:41.958Z,100258.43
2018-03-02T22:13:07.978Z,100257.19
2018-03-02T22:15:33.845Z,100260.47
2018-03-02T22:18:00.037Z,100265.06
2018-03-02T22:20:26.041Z,100259.81
2018-03-02T22:22:52.001Z,100257.37
2018-03-02T22:25:17.925Z,100259.55
2018-03-02T22:27:43.838Z,100265.20
2018-03-02T22:30:09.733Z,100269.09
2018-03-02T22:32:35.598Z,100271.23
2018-03-02T22:35:01.598Z,100263.73
2018-03-02T22:37:27.497Z,100256.19
2018-03-02T22:39:53.347Z,100255.83
2018-03-02T22:42:19.276Z,100257.10
2018-03-02T22:44:45.146Z,100256.33
2018-03-02T22:47:11.127Z,100259.88
2018-03-02T22:49:37.193Z,100255.30
2018-03-02T22:52:03.077Z,100260.55
2018-03-02T22:54:28.926Z,100252.98
2018-03-02T22:56:54.826Z,100246.11
2018-03-02T22:59:20.767Z,100251.11
2018-03-02T23:01:46.617Z,100252.98
2018-03-02T23:04:12.552Z,100244.77
2018-03-02T23:06:38.419Z,100247.33
2018-03-02T23:09:04.281Z,100243.88
2018-03-02T23:11:30.268Z,100256.89
2018-03-02T23:13:56.499Z,100257.47
2018-03-02T23:16:22.367Z,100255.45
2018-03-02T23:18:48.305Z,100248.83
2018-03-02T23:21:14.164Z,100250.22
2018-03-02T23:23:40.145Z,100248.80
2018-03-02T23:26:06.046Z,100251.64
2018-03-02T23:28:32.544Z,100256.94
2018-03-02T23:30:58.423Z,100259.34
2018-03-02T23:33:24.343Z,100249.06
2018-03-02T23:35:50.314Z,100256.06
2018-03-02T23:38:16.174Z,100254.16
2018-03-02T23:40:42.089Z,100251.22
2018-03-02T23:43:07.953Z,100249.42
2018-03-02T23:45:33.815Z,100252.20
2018-03-02T23:48:00.670Z,100244.84
2018-03-02T23:50:26.542Z,100251.38
2018-03-02T23:52:52.642Z,100257.34
2018-03-02T23:55:18.549Z,100267.27
2018-03-02T23:57:44.430Z,100258.43
